createdAt,value
2022-12-06T00:00:38.136Z,43.55
2022-12-06T00:01:38.143Z,46.76
2022-12-06T00:02:39.176Z,49.95
2022-12-06T00:03:38.159Z,46.06
2022-12-06T00:04:38.087Z,43.87
2022-12-06T00:05:41.845Z,44.27
2022-12-06T00:06:40.071Z,40.80
2022-12-06T00:07:38.095Z,41.18
2022-12-06T00:08:38.053Z,56.93
2022-12-06T00:09:38.045Z,45.55
2022-12-06T00:10:38.068Z,41.17
2022-12-06T00:11:38.026Z,59.58
2022-12-06T00:12:38.030Z,42.40
2022-12-06T00:13:38.013Z,44.38
2022-12-06T00:14:38.006Z,50.23
2022-12-06T00:15:38.030Z,55.98
2022-12-06T00:16:38.032Z,46.98
2022-12-06T00:17:42.882Z,48.71
2022-12-06T00:18:39.979Z,46.09
2022-12-06T00:19:37.979Z,43.86
2022-12-06T00:20:37.997Z,45.18
2022-12-06T00:21:37.954Z,52.22
2022-12-06T00:22:37.951Z,45.56
2022-12-06T00:23:37.945Z,47.25
2022-12-06T00:24:37.941Z,47.63
2022-12-06T00:25:37.927Z,41.16
2022-12-06T00:26:37.954Z,46.28
2022-12-06T00:27:37.909Z,47.29
2022-12-06T00:28:37.913Z,46.23
2022-12-06T00:29:37.899Z,53.67
2022-12-06T00:30:37.922Z,46.10
2022-12-06T00:31:37.977Z,44.57
2022-12-06T00:32:37.879Z,45.45
2022-12-06T00:33:37.872Z,40.73
2022-12-06T00:34:37.861Z,43.22
2022-12-06T00:35:37.860Z,41.37
2022-12-06T00:36:37.873Z,45.73
2022-12-06T00:37:37.837Z,51.83
2022-12-06T00:38:37.833Z,40.82
2022-12-06T00:39:37.821Z,50.02
2022-12-06T00:40:37.819Z,50.64
2022-12-06T00:41:37.833Z,47.11
2022-12-06T00:43:12.157Z,40.44
2022-12-06T00:43:37.794Z,55.75
2022-12-06T00:44:37.783Z,57.81
2022-12-06T00:45:37.864Z,58.50
2022-12-06T00:46:37.796Z,59.27
2022-12-06T00:47:37.762Z,59.85
2022-12-06T00:48:37.758Z,59.60
2022-12-06T00:49:37.752Z,60.28
2022-12-06T00:50:37.743Z,52.68
2022-12-06T00:51:37.755Z,42.64
2022-12-06T00:52:37.728Z,37.47
2022-12-06T00:53:37.718Z,38.69
2022-12-06T00:54:37.719Z,39.74
2022-12-06T00:55:37.700Z,54.90
2022-12-06T00:56:37.722Z,46.35
2022-12-06T00:57:37.681Z,39.50
2022-12-06T00:58:37.678Z,38.59
2022-12-06T00:59:37.671Z,51.19
2022-12-06T01:00:37.664Z,51.48
2022-12-06T01:01:37.727Z,50.28
2022-12-06T01:02:37.638Z,40.72
2022-12-06T01:03:38.692Z,47.90
2022-12-06T01:04:37.629Z,48.82
2022-12-06T01:05:37.631Z,49.25
2022-12-06T01:06:37.647Z,40.68
2022-12-06T01:07:37.642Z,40.77
2022-12-06T01:08:37.606Z,49.98
2022-12-06T01:09:37.601Z,49.37
2022-12-06T01:10:37.583Z,55.65
2022-12-06T01:11:37.608Z,47.54
2022-12-06T01:12:37.573Z,43.44
2022-12-06T01:13:37.567Z,42.55
2022-12-06T01:14:37.555Z,43.10
2022-12-06T01:15:37.554Z,41.40
2022-12-06T01:16:37.661Z,48.15
2022-12-06T01:17:37.565Z,47.05
2022-12-06T01:18:37.529Z,44.79
2022-12-06T01:19:37.521Z,50.73
2022-12-06T01:20:37.513Z,42.83
2022-12-06T01:21:37.541Z,40.44
2022-12-06T01:22:37.489Z,45.24
2022-12-06T01:23:37.492Z,47.30
2022-12-06T01:24:37.478Z,45.44
2022-12-06T01:25:37.473Z,45.20
2022-12-06T01:26:37.492Z,50.10
2022-12-06T01:27:37.461Z,48.03
2022-12-06T01:28:37.454Z,40.04
2022-12-06T01:29:37.452Z,45.67
2022-12-06T01:30:37.552Z,40.46
2022-12-06T01:31:39.065Z,43.39
2022-12-06T01:32:38.429Z,40.58
2022-12-06T01:33:37.417Z,46.33
2022-12-06T01:34:37.409Z,43.87
2022-12-06T01:35:37.402Z,40.66
2022-12-06T01:36:37.420Z,41.01
2022-12-06T01:37:37.383Z,43.59
2022-12-06T01:38:37.379Z,40.50
2022-12-06T01:39:37.371Z,40.53
2022-12-06T01:40:37.361Z,53.13
2022-12-06T01:41:37.384Z,43.71
2022-12-06T01:42:37.350Z,40.62
2022-12-06T01:43:37.339Z,43.96
2022-12-06T01:44:37.350Z,46.60
2022-12-06T01:45:37.326Z,50.18
2022-12-06T01:46:37.427Z,44.04
2022-12-06T01:47:37.310Z,45.65
2022-12-06T01:48:37.303Z,47.04
2022-12-06T01:49:37.292Z,51.70
2022-12-06T01:50:37.290Z,40.69
2022-12-06T01:51:37.315Z,43.33
2022-12-06T01:52:37.275Z,40.59
2022-12-06T01:53:37.283Z,53.81
2022-12-06T01:54:37.265Z,41.29
2022-12-06T01:55:37.255Z,42.50
2022-12-06T01:56:37.266Z,47.22
2022-12-06T01:57:37.238Z,44.92
2022-12-06T01:58:37.248Z,44.37
2022-12-06T01:59:37.221Z,45.18
2022-12-06T02:00:37.217Z,47.09
2022-12-06T02:01:37.319Z,46.16
2022-12-06T02:02:37.237Z,43.15
2022-12-06T02:03:37.202Z,55.30
2022-12-06T02:04:37.191Z,56.77
2022-12-06T02:05:40.714Z,59.89
2022-12-06T02:06:38.195Z,60.23
2022-12-06T02:07:37.211Z,60.77
2022-12-06T02:08:37.157Z,58.10
2022-12-06T02:09:37.150Z,59.95
2022-12-06T02:10:37.136Z,58.31
2022-12-06T02:11:37.155Z,58.43
2022-12-06T02:12:38.126Z,58.26
2022-12-06T02:13:37.145Z,58.70
2022-12-06T02:14:37.112Z,58.91
2022-12-06T02:15:37.106Z,60.55
2022-12-06T02:16:37.185Z,58.76
2022-12-06T02:17:37.092Z,59.28
2022-12-06T02:18:37.084Z,60.52
2022-12-06T02:19:37.103Z,57.95
2022-12-06T02:20:37.085Z,40.86
2022-12-06T02:21:37.074Z,50.74
2022-12-06T02:22:37.076Z,41.32
2022-12-06T02:23:37.057Z,46.66
2022-12-06T02:24:37.067Z,40.82
2022-12-06T02:25:40.756Z,39.68
2022-12-06T02:26:39.025Z,53.71
2022-12-06T02:27:37.015Z,49.80
2022-12-06T02:28:37.014Z,47.02
2022-12-06T02:29:37.026Z,43.68
2022-12-06T02:30:37.096Z,54.90
2022-12-06T02:31:36.986Z,43.21
2022-12-06T02:32:36.986Z,43.10
2022-12-06T02:33:36.974Z,49.03
2022-12-06T02:34:37.010Z,58.64
2022-12-06T02:35:36.959Z,43.46
2022-12-06T02:36:36.952Z,46.63
2022-12-06T02:37:36.941Z,51.20
2022-12-06T02:38:36.939Z,54.30
2022-12-06T02:39:36.967Z,51.16
2022-12-06T02:40:36.921Z,40.90
2022-12-06T02:41:36.909Z,46.09
2022-12-06T02:42:36.906Z,43.14
2022-12-06T02:43:36.900Z,41.37
2022-12-06T02:44:36.913Z,42.77
2022-12-06T02:45:36.890Z,44.85
2022-12-06T02:46:36.908Z,44.49
2022-12-06T02:47:36.866Z,49.03
2022-12-06T02:48:36.855Z,44.53
2022-12-06T02:49:36.876Z,39.73
2022-12-06T02:50:36.845Z,44.24
2022-12-06T02:51:36.846Z,43.10
2022-12-06T02:52:36.830Z,44.73
2022-12-06T02:53:36.823Z,40.57
2022-12-06T02:54:36.842Z,40.63
2022-12-06T02:55:36.813Z,44.08
2022-12-06T02:56:36.806Z,43.86
2022-12-06T02:57:36.792Z,46.22
2022-12-06T02:58:36.791Z,46.05
2022-12-06T02:59:36.806Z,53.19
2022-12-06T03:00:36.773Z,47.50
2022-12-06T03:01:36.793Z,40.88
2022-12-06T03:02:36.808Z,55.69
2022-12-06T03:03:36.749Z,41.98
2022-12-06T03:04:36.773Z,45.51
2022-12-06T03:05:36.739Z,48.05
2022-12-06T03:06:36.723Z,53.58
2022-12-06T03:07:36.790Z,43.12
2022-12-06T03:08:36.713Z,49.90
2022-12-06T03:09:36.726Z,53.57
2022-12-06T03:10:36.701Z,43.08
2022-12-06T03:11:36.705Z,42.33
2022-12-06T03:12:36.688Z,54.47
2022-12-06T03:13:36.671Z,44.84
2022-12-06T03:14:36.692Z,49.06
2022-12-06T03:15:36.685Z,45.92
2022-12-06T03:16:36.661Z,48.23
2022-12-06T03:17:36.638Z,49.83
2022-12-06T03:18:36.631Z,46.51
2022-12-06T03:19:36.650Z,45.76
2022-12-06T03:20:36.619Z,45.93
2022-12-06T03:21:36.609Z,49.78
2022-12-06T03:22:39.808Z,42.92
2022-12-06T03:23:37.596Z,46.46
2022-12-06T03:24:36.624Z,43.44
2022-12-06T03:25:36.582Z,55.60
2022-12-06T03:26:36.579Z,42.30
2022-12-06T03:27:36.569Z,51.29
2022-12-06T03:28:36.576Z,46.59
2022-12-06T03:29:36.555Z,48.86
2022-12-06T03:30:36.599Z,45.79
2022-12-06T03:31:36.609Z,49.95
2022-12-06T03:32:36.540Z,49.09
2022-12-06T03:33:36.524Z,43.48
2022-12-06T03:34:36.575Z,44.32
2022-12-06T03:35:36.562Z,51.01
2022-12-06T03:36:36.505Z,52.91
2022-12-06T03:37:36.491Z,44.88
2022-12-06T03:38:36.489Z,48.67
2022-12-06T03:39:36.487Z,60.41
2022-12-06T03:40:36.501Z,51.51
2022-12-06T03:41:36.466Z,44.30
2022-12-06T03:42:36.460Z,50.46
2022-12-06T03:43:36.446Z,52.81
2022-12-06T03:44:36.439Z,48.96
2022-12-06T03:45:36.488Z,49.56
2022-12-06T03:46:36.476Z,52.46
2022-12-06T03:47:36.420Z,49.81
2022-12-06T03:48:36.406Z,49.42
2022-12-06T03:49:36.400Z,41.94
2022-12-06T03:50:36.424Z,49.32
2022-12-06T03:51:36.397Z,43.73
2022-12-06T03:52:36.391Z,49.84
2022-12-06T03:53:36.386Z,56.76
2022-12-06T03:54:36.368Z,47.59
2022-12-06T03:55:36.380Z,46.00
2022-12-06T03:56:36.348Z,46.75
2022-12-06T03:57:36.337Z,52.30
2022-12-06T03:58:36.331Z,48.43
2022-12-06T03:59:36.324Z,45.60
2022-12-06T04:00:36.339Z,46.92
2022-12-06T04:01:36.376Z,52.11
2022-12-06T04:02:36.318Z,55.68
2022-12-06T04:03:36.350Z,46.48
2022-12-06T04:04:36.293Z,49.71
2022-12-06T04:05:36.300Z,47.34
2022-12-06T04:06:36.273Z,55.22
2022-12-06T04:07:36.299Z,51.01
2022-12-06T04:08:36.256Z,51.52
2022-12-06T04:09:36.245Z,54.66
2022-12-06T04:10:36.267Z,58.07
2022-12-06T04:11:36.232Z,60.87
2022-12-06T04:12:36.229Z,60.59
2022-12-06T04:13:36.210Z,60.93
2022-12-06T04:14:37.203Z,63.28
2022-12-06T04:15:36.395Z,58.09
2022-12-06T04:16:36.242Z,59.01
2022-12-06T04:17:36.190Z,59.42
2022-12-06T04:18:36.176Z,59.06
2022-12-06T04:19:36.203Z,63.36
2022-12-06T04:20:36.191Z,60.05
2022-12-06T04:21:36.151Z,59.44
2022-12-06T04:22:36.277Z,59.90
2022-12-06T04:23:36.135Z,59.79
2022-12-06T04:24:36.124Z,59.85
2022-12-06T04:25:37.165Z,60.79
2022-12-06T04:26:36.128Z,59.12
2022-12-06T04:27:36.115Z,50.52
2022-12-06T04:28:36.107Z,54.55
2022-12-06T04:29:36.127Z,54.91
2022-12-06T04:30:36.121Z,55.32
2022-12-06T04:31:36.174Z,55.72
2022-12-06T04:32:36.077Z,54.18
2022-12-06T04:33:36.065Z,51.26
2022-12-06T04:34:36.058Z,52.93
2022-12-06T04:35:37.079Z,59.99
2022-12-06T04:36:36.084Z,55.07
2022-12-06T04:37:36.037Z,49.95
2022-12-06T04:38:36.043Z,56.32
2022-12-06T04:39:36.027Z,54.06
2022-12-06T04:40:36.013Z,55.99
2022-12-06T04:41:36.031Z,54.21
2022-12-06T04:42:36.003Z,51.96
2022-12-06T04:43:36.040Z,54.09
2022-12-06T04:44:35.987Z,49.57
2022-12-06T04:45:35.978Z,51.01
2022-12-06T04:46:36.091Z,60.10
2022-12-06T04:47:35.967Z,53.38
2022-12-06T04:48:35.954Z,46.95
2022-12-06T04:49:35.943Z,51.08
2022-12-06T04:50:35.954Z,60.00
2022-12-06T04:51:35.965Z,53.65
2022-12-06T04:52:36.442Z,56.16
2022-12-06T04:53:36.926Z,49.58
2022-12-06T04:54:35.913Z,55.37
2022-12-06T04:55:35.919Z,49.05
2022-12-06T04:56:35.930Z,58.61
2022-12-06T04:57:35.892Z,61.04
2022-12-06T04:58:35.877Z,51.13
2022-12-06T04:59:35.869Z,54.89
2022-12-06T05:00:35.903Z,55.26
2022-12-06T05:01:35.880Z,54.46
2022-12-06T05:02:35.849Z,53.65
2022-12-06T05:03:40.864Z,53.97
2022-12-06T05:04:37.836Z,53.12
2022-12-06T05:05:35.825Z,54.14
2022-12-06T05:06:35.857Z,52.61
2022-12-06T05:07:35.901Z,53.89
2022-12-06T05:08:35.802Z,52.14
2022-12-06T05:09:35.794Z,56.90
2022-12-06T05:10:35.792Z,52.60
2022-12-06T05:11:35.807Z,54.59
2022-12-06T05:12:35.765Z,52.34
2022-12-06T05:13:35.765Z,51.16
2022-12-06T05:14:35.756Z,54.72
2022-12-06T05:15:35.748Z,58.15
2022-12-06T05:16:35.800Z,55.87
2022-12-06T05:17:35.733Z,56.54
2022-12-06T05:18:35.724Z,56.67
2022-12-06T05:19:35.717Z,59.41
2022-12-06T05:20:35.708Z,53.28
2022-12-06T05:21:35.724Z,56.80
2022-12-06T05:22:36.698Z,55.35
2022-12-06T05:23:35.690Z,56.43
2022-12-06T05:24:35.702Z,51.78
2022-12-06T05:25:35.671Z,56.41
2022-12-06T05:26:35.699Z,59.42
2022-12-06T05:27:36.310Z,53.78
2022-12-06T05:28:36.656Z,55.71
2022-12-06T05:29:35.652Z,56.47
2022-12-06T05:30:35.636Z,60.45
2022-12-06T05:31:35.735Z,56.33
2022-12-06T05:32:35.622Z,58.27
2022-12-06T05:33:35.612Z,54.99
2022-12-06T05:34:35.607Z,56.80
2022-12-06T05:35:35.603Z,54.80
2022-12-06T05:36:35.615Z,54.67
2022-12-06T05:37:36.591Z,58.61
2022-12-06T05:38:35.579Z,55.44
2022-12-06T05:39:35.578Z,52.19
2022-12-06T05:40:35.571Z,57.88
2022-12-06T05:41:35.600Z,62.79
2022-12-06T05:42:35.552Z,54.40
2022-12-06T05:43:35.541Z,54.42
2022-12-06T05:44:35.525Z,59.04
2022-12-06T05:45:35.585Z,58.33
2022-12-06T05:46:35.562Z,56.66
2022-12-06T05:47:35.542Z,57.75
2022-12-06T05:48:35.523Z,57.29
2022-12-06T05:49:35.504Z,55.09
2022-12-06T05:50:35.496Z,56.60
2022-12-06T05:51:35.485Z,56.18
2022-12-06T05:52:35.500Z,57.07
2022-12-06T05:53:35.483Z,59.75
2022-12-06T05:54:35.457Z,56.17
2022-12-06T05:55:35.449Z,57.17
2022-12-06T05:56:35.443Z,60.83
2022-12-06T05:57:35.461Z,60.24
2022-12-06T05:58:35.430Z,60.77
2022-12-06T05:59:35.420Z,61.19
2022-12-06T06:00:35.404Z,64.65
2022-12-06T06:01:35.414Z,62.16
2022-12-06T06:02:35.522Z,60.28
2022-12-06T06:03:35.468Z,61.27
2022-12-06T06:04:35.385Z,62.88
2022-12-06T06:05:35.391Z,60.11
2022-12-06T06:06:35.366Z,59.87
2022-12-06T06:07:35.444Z,58.66
2022-12-06T06:08:35.354Z,60.45
2022-12-06T06:09:35.347Z,59.53
2022-12-06T06:10:35.336Z,59.04
2022-12-06T06:11:35.340Z,59.89
2022-12-06T06:12:35.347Z,60.90
2022-12-06T06:13:35.319Z,60.89
2022-12-06T06:14:35.309Z,59.86
2022-12-06T06:15:35.308Z,61.14
2022-12-06T06:16:35.375Z,60.50
2022-12-06T06:17:35.323Z,59.81
2022-12-06T06:18:35.284Z,60.46
2022-12-06T06:19:35.268Z,60.24
2022-12-06T06:20:35.275Z,62.42
2022-12-06T06:21:35.256Z,59.19
2022-12-06T06:22:35.323Z,59.80
2022-12-06T06:23:35.242Z,60.01
2022-12-06T06:24:35.242Z,60.10
2022-12-06T06:25:35.228Z,60.46
2022-12-06T06:26:35.219Z,62.43
2022-12-06T06:27:35.245Z,60.73
2022-12-06T06:28:35.200Z,60.14
2022-12-06T06:29:35.195Z,60.43
2022-12-06T06:30:35.185Z,59.70
2022-12-06T06:31:35.252Z,60.12
2022-12-06T06:32:35.199Z,59.67
2022-12-06T06:33:35.166Z,60.89
2022-12-06T06:34:35.161Z,60.90
2022-12-06T06:35:35.148Z,60.60
2022-12-06T06:36:35.271Z,61.03
2022-12-06T06:37:35.159Z,60.71
2022-12-06T06:38:35.128Z,60.56
2022-12-06T06:39:35.123Z,58.23
2022-12-06T06:40:35.113Z,58.05
2022-12-06T06:41:35.109Z,56.72
2022-12-06T06:42:35.115Z,58.64
2022-12-06T06:44:09.246Z,58.05
2022-12-06T06:44:35.085Z,57.24
2022-12-06T06:45:35.106Z,55.99
2022-12-06T06:46:35.133Z,59.02
2022-12-06T06:47:35.115Z,54.32
2022-12-06T06:48:35.057Z,57.84
2022-12-06T06:49:35.052Z,58.08
2022-12-06T06:50:35.061Z,58.97
2022-12-06T06:51:35.035Z,60.56
2022-12-06T06:52:35.065Z,55.13
2022-12-06T06:53:35.037Z,54.99
2022-12-06T06:54:35.032Z,58.02
2022-12-06T06:55:35.017Z,58.71
2022-12-06T06:56:35.027Z,55.63
2022-12-06T06:57:35.100Z,56.36
2022-12-06T06:58:34.994Z,55.98
2022-12-06T06:59:35.042Z,58.59
2022-12-06T07:00:34.995Z,56.94
2022-12-06T07:01:35.130Z,57.07
2022-12-06T07:02:35.050Z,60.60
2022-12-06T07:03:34.965Z,58.04
2022-12-06T07:04:34.951Z,56.48
2022-12-06T07:05:34.948Z,55.73
2022-12-06T07:06:34.942Z,58.05
2022-12-06T07:07:35.009Z,56.47
2022-12-06T07:08:34.945Z,58.20
2022-12-06T07:09:34.924Z,55.42
2022-12-06T07:10:34.913Z,58.57
2022-12-06T07:11:34.912Z,56.67
2022-12-06T07:12:34.885Z,58.16
2022-12-06T07:13:34.924Z,56.33
2022-12-06T07:14:34.904Z,57.52
2022-12-06T07:15:34.875Z,56.17
2022-12-06T07:16:34.912Z,59.10
2022-12-06T07:17:34.900Z,51.55
2022-12-06T07:18:34.870Z,58.98
2022-12-06T07:19:34.854Z,55.25
2022-12-06T07:20:34.835Z,55.73
2022-12-06T07:21:34.824Z,59.21
2022-12-06T07:22:34.818Z,56.90
2022-12-06T07:23:34.827Z,54.51
2022-12-06T07:24:41.252Z,55.17
2022-12-06T07:25:36.861Z,58.35
2022-12-06T07:26:34.780Z,60.39
2022-12-06T07:27:34.787Z,56.76
2022-12-06T07:28:34.804Z,53.96
2022-12-06T07:29:34.774Z,61.61
2022-12-06T07:30:34.924Z,57.40
2022-12-06T07:31:34.823Z,56.41
2022-12-06T07:32:34.731Z,55.70
2022-12-06T07:33:34.755Z,58.23
2022-12-06T07:34:34.732Z,54.54
2022-12-06T07:36:10.176Z,59.22
2022-12-06T07:36:36.707Z,56.26
2022-12-06T07:37:34.724Z,58.96
2022-12-06T07:38:34.726Z,54.33
2022-12-06T07:39:34.684Z,53.35
2022-12-06T07:41:03.001Z,55.29
2022-12-06T07:41:36.705Z,56.70
2022-12-06T07:42:34.666Z,54.84
2022-12-06T07:43:34.656Z,58.64
2022-12-06T07:44:34.698Z,55.40
2022-12-06T07:45:34.646Z,56.01
2022-12-06T07:46:34.702Z,59.05
2022-12-06T07:47:34.630Z,57.32
2022-12-06T07:48:34.636Z,59.37
2022-12-06T07:49:34.664Z,55.81
2022-12-06T07:50:34.617Z,56.50
2022-12-06T07:51:34.616Z,60.59
2022-12-06T07:52:34.592Z,56.92
2022-12-06T07:53:34.585Z,54.26
2022-12-06T07:54:34.630Z,54.04
2022-12-06T07:55:34.574Z,62.13
2022-12-06T07:56:34.573Z,57.56
2022-12-06T07:57:38.566Z,56.13
2022-12-06T07:58:36.545Z,51.89
2022-12-06T07:59:34.579Z,55.63
2022-12-06T08:00:34.535Z,57.36
2022-12-06T08:01:34.591Z,56.02
2022-12-06T08:02:34.528Z,55.39
2022-12-06T08:03:34.510Z,56.50
2022-12-06T08:04:34.571Z,54.08
2022-12-06T08:05:34.497Z,54.72
2022-12-06T08:06:34.476Z,50.33
2022-12-06T08:07:34.557Z,58.98
2022-12-06T08:08:34.575Z,55.06
2022-12-06T08:09:34.492Z,54.97
2022-12-06T08:10:34.458Z,52.53
2022-12-06T08:11:34.445Z,57.37
2022-12-06T08:12:34.445Z,52.81
2022-12-06T08:13:34.480Z,58.45
2022-12-06T08:14:34.450Z,57.49
2022-12-06T08:15:34.466Z,55.29
2022-12-06T08:16:34.465Z,55.22
2022-12-06T08:17:34.410Z,56.90
2022-12-06T08:18:34.391Z,58.18
2022-12-06T08:19:34.427Z,58.01
2022-12-06T08:20:34.382Z,56.72
2022-12-06T08:21:34.369Z,57.66
2022-12-06T08:22:34.370Z,56.37
2022-12-06T08:23:34.886Z,57.04
2022-12-06T08:24:35.373Z,55.49
2022-12-06T08:25:34.355Z,56.00
2022-12-06T08:26:34.337Z,57.26
2022-12-06T08:27:34.361Z,57.06
2022-12-06T08:28:34.314Z,55.69
2022-12-06T08:29:34.345Z,56.60
2022-12-06T08:30:34.404Z,56.23
2022-12-06T08:31:34.342Z,58.49
2022-12-06T08:32:34.299Z,57.07
2022-12-06T08:33:34.287Z,54.04
2022-12-06T08:34:34.309Z,55.31
2022-12-06T08:35:34.290Z,54.62
2022-12-06T08:36:34.265Z,57.72
2022-12-06T08:37:34.259Z,55.39
2022-12-06T08:38:34.247Z,55.58
2022-12-06T08:39:34.264Z,59.43
2022-12-06T08:40:34.263Z,56.09
2022-12-06T08:41:34.287Z,54.39
2022-12-06T08:42:34.229Z,57.21
2022-12-06T08:43:34.205Z,61.35
2022-12-06T08:44:34.229Z,55.67
2022-12-06T08:45:34.193Z,58.60
2022-12-06T08:46:34.232Z,56.41
2022-12-06T08:47:34.238Z,55.93
2022-12-06T08:48:38.436Z,56.70
2022-12-06T08:49:35.282Z,56.49
2022-12-06T08:50:34.154Z,54.11
2022-12-06T08:51:34.158Z,56.22
2022-12-06T08:52:34.143Z,60.40
2022-12-06T08:53:34.133Z,55.79
2022-12-06T08:54:34.154Z,58.06
2022-12-06T08:55:34.127Z,57.41
2022-12-06T08:56:34.103Z,56.01
2022-12-06T08:57:34.108Z,55.24
2022-12-06T08:58:34.108Z,52.96
2022-12-06T08:59:34.113Z,52.83
2022-12-06T09:00:35.269Z,58.27
2022-12-06T09:01:37.781Z,57.34
2022-12-06T09:02:35.068Z,56.15
2022-12-06T09:03:34.062Z,57.66
2022-12-06T09:04:34.122Z,56.01
2022-12-06T09:05:34.055Z,56.81
2022-12-06T09:06:34.074Z,60.44
2022-12-06T09:07:34.088Z,56.56
2022-12-06T09:08:34.074Z,54.95
2022-12-06T09:09:34.034Z,56.75
2022-12-06T09:10:34.026Z,55.51
2022-12-06T09:11:34.003Z,59.08
2022-12-06T09:12:34.004Z,56.17
2022-12-06T09:13:33.982Z,56.36
2022-12-06T09:14:34.020Z,57.02
2022-12-06T09:15:35.054Z,57.27
2022-12-06T09:16:34.039Z,57.07
2022-12-06T09:17:33.965Z,55.84
2022-12-06T09:18:33.943Z,56.67
2022-12-06T09:19:33.983Z,56.09
2022-12-06T09:20:33.935Z,56.10
2022-12-06T09:21:33.945Z,55.79
2022-12-06T09:22:33.974Z,52.23
2022-12-06T09:23:33.931Z,55.61
2022-12-06T09:24:33.964Z,58.11
2022-12-06T09:25:33.886Z,58.90
2022-12-06T09:26:33.894Z,56.57
2022-12-06T09:27:33.882Z,55.75
2022-12-06T09:28:33.858Z,54.27
2022-12-06T09:29:38.962Z,54.73
2022-12-06T09:30:35.843Z,56.89
2022-12-06T09:31:33.869Z,52.84
2022-12-06T09:32:33.828Z,58.23
2022-12-06T09:33:33.823Z,56.19
2022-12-06T09:34:33.809Z,54.15
2022-12-06T09:35:33.831Z,56.49
2022-12-06T09:36:33.800Z,55.25
2022-12-06T09:37:33.788Z,61.54
2022-12-06T09:38:33.780Z,59.45
2022-12-06T09:39:33.775Z,56.81
2022-12-06T09:40:37.243Z,58.06
2022-12-06T09:41:34.762Z,60.14
2022-12-06T09:42:33.752Z,56.12
2022-12-06T09:43:33.750Z,54.62
2022-12-06T09:44:33.750Z,57.70
2022-12-06T09:45:33.762Z,53.94
2022-12-06T09:46:33.767Z,57.20
2022-12-06T09:47:33.714Z,59.18
2022-12-06T09:48:33.713Z,59.69
2022-12-06T09:49:33.707Z,57.79
2022-12-06T09:50:33.725Z,57.26
2022-12-06T09:51:33.684Z,58.61
2022-12-06T09:52:33.683Z,58.20
2022-12-06T09:53:33.673Z,59.02
2022-12-06T09:54:33.663Z,58.31
2022-12-06T09:55:33.698Z,56.62
2022-12-06T09:56:33.646Z,55.71
2022-12-06T09:57:33.640Z,54.84
2022-12-06T09:58:33.633Z,56.43
2022-12-06T09:59:33.640Z,61.12
2022-12-06T10:00:33.647Z,57.69
2022-12-06T10:01:33.672Z,58.70
2022-12-06T10:02:33.655Z,56.63
2022-12-06T10:03:33.600Z,58.50
2022-12-06T10:04:33.598Z,57.13
2022-12-06T10:05:33.613Z,55.29
2022-12-06T10:06:33.586Z,59.20
2022-12-06T10:07:33.617Z,56.11
2022-12-06T10:08:33.652Z,50.81
2022-12-06T10:09:34.044Z,57.72
2022-12-06T10:10:33.573Z,60.70
2022-12-06T10:11:33.538Z,57.11
2022-12-06T10:12:33.532Z,59.29
2022-12-06T10:13:33.532Z,59.18
2022-12-06T10:14:33.518Z,60.02
2022-12-06T10:15:33.538Z,61.77
2022-12-06T10:16:33.600Z,61.22
2022-12-06T10:17:33.492Z,61.20
2022-12-06T10:18:33.482Z,62.07
2022-12-06T10:19:33.477Z,60.85
2022-12-06T10:20:33.504Z,60.86
2022-12-06T10:21:33.461Z,64.11
2022-12-06T10:22:33.458Z,60.81
2022-12-06T10:23:33.460Z,61.01
2022-12-06T10:24:33.426Z,63.26
2022-12-06T10:25:34.461Z,62.90
2022-12-06T10:26:33.416Z,55.95
2022-12-06T10:27:33.420Z,56.20
2022-12-06T10:28:33.412Z,56.64
2022-12-06T10:29:33.404Z,57.29
2022-12-06T10:30:33.402Z,56.92
2022-12-06T10:31:33.429Z,57.76
2022-12-06T10:32:33.382Z,59.41
2022-12-06T10:33:33.388Z,55.49
2022-12-06T10:34:33.363Z,58.41
2022-12-06T10:35:33.356Z,58.36
2022-12-06T10:36:33.436Z,58.09
2022-12-06T10:37:33.353Z,57.80
2022-12-06T10:38:33.335Z,56.41
2022-12-06T10:39:33.324Z,58.91
2022-12-06T10:40:33.317Z,49.55
2022-12-06T10:41:33.328Z,56.13
2022-12-06T10:42:33.297Z,56.78
2022-12-06T10:43:33.287Z,59.18
2022-12-06T10:44:33.297Z,55.34
2022-12-06T10:45:33.281Z,57.43
2022-12-06T10:46:33.331Z,56.66
2022-12-06T10:47:33.262Z,55.89
2022-12-06T10:48:33.262Z,56.93
2022-12-06T10:49:33.240Z,55.09
2022-12-06T10:50:33.241Z,54.66
2022-12-06T10:51:33.258Z,58.44
2022-12-06T10:52:33.221Z,60.82
2022-12-06T10:53:33.218Z,58.31
2022-12-06T10:54:33.226Z,57.08
2022-12-06T10:55:33.222Z,55.05
2022-12-06T10:56:33.231Z,60.23
2022-12-06T10:57:33.185Z,58.72
2022-12-06T10:58:33.185Z,54.76
2022-12-06T10:59:33.170Z,55.49
2022-12-06T11:00:33.196Z,56.15
2022-12-06T11:01:34.327Z,55.67
2022-12-06T11:02:34.198Z,58.00
2022-12-06T11:03:33.151Z,59.87
2022-12-06T11:04:33.141Z,57.52
2022-12-06T11:05:33.132Z,53.06
2022-12-06T11:06:33.148Z,54.68
2022-12-06T11:07:33.185Z,56.40
2022-12-06T11:08:33.107Z,57.50
2022-12-06T11:09:33.107Z,56.12
2022-12-06T11:10:33.091Z,59.66
2022-12-06T11:11:33.117Z,55.87
2022-12-06T11:12:33.078Z,57.29
2022-12-06T11:13:33.087Z,57.31
2022-12-06T11:14:33.059Z,58.08
2022-12-06T11:15:33.060Z,50.20
2022-12-06T11:16:33.193Z,58.93
2022-12-06T11:17:33.037Z,53.57
2022-12-06T11:18:33.038Z,58.27
2022-12-06T11:19:33.027Z,59.40
2022-12-06T11:20:33.025Z,55.67
2022-12-06T11:21:33.037Z,55.77
2022-12-06T11:22:33.008Z,58.88
2022-12-06T11:23:32.989Z,56.70
2022-12-06T11:24:33.984Z,55.71
2022-12-06T11:25:32.990Z,59.09
2022-12-06T11:26:32.979Z,54.65
2022-12-06T11:27:32.989Z,61.86
2022-12-06T11:28:32.953Z,56.05
2022-12-06T11:29:32.962Z,55.66
2022-12-06T11:30:33.052Z,58.54
2022-12-06T11:31:33.020Z,54.81
2022-12-06T11:32:32.960Z,54.99
2022-12-06T11:33:32.925Z,56.96
2022-12-06T11:34:32.924Z,58.98
2022-12-06T11:35:32.914Z,57.38
2022-12-06T11:36:32.897Z,54.94
2022-12-06T11:37:32.924Z,56.19
2022-12-06T11:38:32.886Z,57.41
2022-12-06T11:39:32.884Z,57.47
2022-12-06T11:40:32.870Z,58.05
2022-12-06T11:41:32.876Z,59.73
2022-12-06T11:42:33.255Z,56.32
2022-12-06T11:43:32.855Z,53.62
2022-12-06T11:44:32.886Z,55.58
2022-12-06T11:45:32.871Z,55.01
2022-12-06T11:46:32.913Z,59.07
2022-12-06T11:47:32.845Z,56.53
2022-12-06T11:48:32.808Z,56.80
2022-12-06T11:49:32.815Z,57.90
2022-12-06T11:50:32.798Z,57.88
2022-12-06T11:51:32.901Z,58.12
2022-12-06T11:52:32.815Z,63.16
2022-12-06T11:53:32.781Z,54.47
2022-12-06T11:54:32.765Z,54.57
2022-12-06T11:55:32.764Z,56.67
2022-12-06T11:56:32.762Z,59.90
2022-12-06T11:57:32.781Z,55.14
2022-12-06T11:58:32.740Z,56.92
2022-12-06T11:59:32.759Z,57.09
2022-12-06T12:00:32.721Z,57.79
2022-12-06T12:01:33.812Z,57.11
2022-12-06T12:02:32.751Z,59.60
2022-12-06T12:03:32.797Z,58.74
2022-12-06T12:04:32.693Z,60.76
2022-12-06T12:05:32.684Z,58.13
2022-12-06T12:06:32.677Z,55.06
2022-12-06T12:07:32.730Z,56.36
2022-12-06T12:08:33.071Z,57.60
2022-12-06T12:09:33.688Z,58.57
2022-12-06T12:10:32.683Z,57.61
2022-12-06T12:11:32.650Z,56.88
2022-12-06T12:12:32.664Z,57.37
2022-12-06T12:13:32.643Z,58.23
2022-12-06T12:14:32.628Z,56.82
2022-12-06T12:15:32.616Z,58.25
2022-12-06T12:16:32.744Z,59.08
2022-12-06T12:17:32.629Z,58.20
2022-12-06T12:18:32.597Z,58.93
2022-12-06T12:19:32.594Z,57.41
2022-12-06T12:20:32.610Z,58.12
2022-12-06T12:21:32.578Z,56.13
2022-12-06T12:22:32.599Z,56.87
2022-12-06T12:23:32.563Z,57.92
2022-12-06T12:24:38.302Z,55.44
2022-12-06T12:25:33.543Z,57.72
2022-12-06T12:26:32.531Z,58.22
2022-12-06T12:27:32.527Z,54.33
2022-12-06T12:28:32.546Z,57.30
2022-12-06T12:29:32.519Z,61.04
2022-12-06T12:30:32.623Z,56.89
2022-12-06T12:31:32.544Z,55.57
2022-12-06T12:32:32.487Z,53.15
2022-12-06T12:33:32.512Z,57.72
2022-12-06T12:34:32.472Z,56.95
2022-12-06T12:35:32.509Z,57.63
2022-12-06T12:36:32.461Z,57.25
2022-12-06T12:37:32.450Z,58.27
2022-12-06T12:38:32.575Z,57.79
2022-12-06T12:39:32.454Z,53.95
2022-12-06T12:40:32.426Z,56.65
2022-12-06T12:41:32.434Z,56.19
2022-12-06T12:42:32.417Z,59.87
2022-12-06T12:44:38.504Z,58.81
2022-12-06T12:45:34.485Z,59.82
2022-12-06T12:46:32.420Z,61.05
2022-12-06T12:47:32.375Z,61.72
2022-12-06T12:48:32.401Z,60.99
2022-12-06T12:49:32.365Z,61.02
2022-12-06T12:50:32.363Z,61.36
2022-12-06T12:51:32.347Z,61.26
2022-12-06T12:52:32.338Z,60.65
2022-12-06T12:53:32.362Z,61.01